COA1053 KPHX-KDEN
Flight info
| Callsign | COA1053 |
|---|---|
| Flight time | N/A |
| Altitude | 35000 |
| Route | MRBIL1 JARPA CRUDD TBARR4 |
| Aircraft | MD83/M-SDFGIRWY/S |
Departure
| Time | 2026-05-07 21:16 |
|---|---|
| Airport | Phoenix Sky Harbor International Airport (KPHX) |
Arrival
| Time | N/A |
|---|---|
| Airport | Denver International Airport (KDEN) |
| Time | Latitude | Longitude | Altitude | Speed | Heading |
|---|---|---|---|---|---|
| 2026-05-07 21:08 | 33.43701 | -112.00736 | 1125 ft | 0 kts | 0° |
| 2026-05-07 21:10 | 33.43704 | -112.00736 | 1125 ft | 1 kts | 0° |
| 2026-05-07 21:10 | 33.43714 | -112.00736 | 1125 ft | 2 kts | 0° |
| 2026-05-07 21:10 | 33.43729 | -112.00736 | 1115 ft | 3 kts | 0° |
| 2026-05-07 21:10 | 33.43776 | -112.00735 | 1117 ft | 9 kts | 0° |
| 2026-05-07 21:11 | 33.43840 | -112.00735 | 1119 ft | 9 kts | 0° |
| 2026-05-07 21:11 | 33.43906 | -112.00735 | 1119 ft | 9 kts | 0° |
| 2026-05-07 21:11 | 33.43974 | -112.00653 | 1119 ft | 9 kts | 90° |
| 2026-05-07 21:12 | 33.43974 | -112.00538 | 1127 ft | 18 kts | 90° |
| 2026-05-07 21:12 | 33.43974 | -112.00383 | 1124 ft | 19 kts | 90° |
| 2026-05-07 21:12 | 33.43974 | -112.00228 | 1119 ft | 18 kts | 90° |
| 2026-05-07 21:12 | 33.43973 | -112.00075 | 1124 ft | 18 kts | 90° |
| 2026-05-07 21:13 | 33.43973 | -111.99922 | 1126 ft | 18 kts | 90° |
| 2026-05-07 21:13 | 33.43972 | -111.99770 | 1131 ft | 18 kts | 90° |
| 2026-05-07 21:13 | 33.43973 | -111.99620 | 1129 ft | 18 kts | 90° |
| 2026-05-07 21:13 | 33.43973 | -111.99469 | 1132 ft | 18 kts | 90° |
| 2026-05-07 21:14 | 33.43973 | -111.99315 | 1129 ft | 17 kts | 90° |
| 2026-05-07 21:14 | 33.43999 | -111.99227 | 1134 ft | 5 kts | 21° |
| 2026-05-07 21:14 | 33.44010 | -111.99224 | 1132 ft | 1 kts | 10° |
| 2026-05-07 21:14 | 33.44028 | -111.99222 | 1134 ft | 4 kts | 3° |
| 2026-05-07 21:15 | 33.44069 | -111.99229 | 1140 ft | 7 kts | 323° |
| 2026-05-07 21:15 | 33.44083 | -111.99282 | 1137 ft | 8 kts | 271° |
| 2026-05-07 21:15 | 33.44083 | -111.99518 | 1136 ft | 56 kts | 270° |
| 2026-05-07 21:15 | 33.44084 | -112.00268 | 1130 ft | 123 kts | 270° |
| 2026-05-07 21:16 | 33.44083 | -112.01527 | 1167 ft | 175 kts | 269° |
| 2026-05-07 21:16 | 33.44055 | -112.02996 | 1797 ft | 182 kts | 268° |
| 2026-05-07 21:16 | 33.44027 | -112.04513 | 2429 ft | 192 kts | 269° |
| 2026-05-07 21:16 | 33.44046 | -112.06252 | 2551 ft | 221 kts | 271° |
| 2026-05-07 21:17 | 33.44099 | -112.08089 | 3268 ft | 222 kts | 272° |
| 2026-05-07 21:17 | 33.44167 | -112.09965 | 3884 ft | 230 kts | 272° |
| 2026-05-07 21:17 | 33.44241 | -112.11915 | 4525 ft | 239 kts | 272° |
| 2026-05-07 21:17 | 33.44334 | -112.13946 | 5108 ft | 251 kts | 277° |
| 2026-05-07 21:18 | 33.44802 | -112.15987 | 5732 ft | 258 kts | 296° |
| 2026-05-07 21:18 | 33.45851 | -112.17675 | 6509 ft | 258 kts | 319° |
| 2026-05-07 21:18 | 33.47358 | -112.18855 | 7200 ft | 260 kts | 340° |
| 2026-05-07 21:18 | 33.49120 | -112.19343 | 7902 ft | 260 kts | 354° |
| 2026-05-07 21:19 | 33.50911 | -112.19530 | 8692 ft | 259 kts | 358° |
| 2026-05-07 21:19 | 33.52708 | -112.19624 | 9420 ft | 258 kts | 3° |
| 2026-05-07 21:19 | 33.54503 | -112.19349 | 9953 ft | 265 kts | 13° |
| 2026-05-07 21:19 | 33.56367 | -112.18813 | 10143 ft | 286 kts | 15° |
| 2026-05-07 21:20 | 33.58359 | -112.18188 | 10320 ft | 305 kts | 15° |
| 2026-05-07 21:20 | 33.60165 | -112.17612 | 10540 ft | 319 kts | 17° |